Time;durP1;ratioP1;P1;durP2;ratioP2;P2;SDS_P1;SDS_P2;PMS_P1;PMS_P2;Temp;Humidity;BMP_temperature;BMP_pressure;BME280_temperature;BME280_humidity;BME280_pressure;Samples;Min_cycle;Max_cycle;Signal;HPM_P1;HPM_P2
2024/05/05 00:00:58;;;;;;;2.72;2.20;;;;;;;12.78;81.62;95756.31;5338859;26;20004;-61
2024/05/05 00:03:24;;;;;;;3.83;2.40;;;;;;;12.59;82.16;95754.34;5343927;26;20119;-62
2024/05/05 00:05:49;;;;;;;3.38;2.55;;;;;;;12.64;82.96;95742.94;5342103;26;20005;-63
2024/05/05 00:08:14;;;;;;;2.65;2.35;;;;;;;12.62;83.21;95747.72;5341212;26;20023;-62
2024/05/05 00:10:39;;;;;;;3.70;2.67;;;;;;;12.74;82.23;95739.41;5342339;26;20001;-62
2024/05/05 00:13:05;;;;;;;3.60;2.60;;;;;;;12.88;81.35;95747.50;5341969;26;20027;-62
2024/05/05 00:15:30;;;;;;;3.03;2.70;;;;;;;12.79;81.81;95748.13;5341837;26;20795;-62
2024/05/05 00:17:55;;;;;;;3.55;2.65;;;;;;;12.82;82.16;95742.25;5342303;26;20484;-62
2024/05/05 00:20:21;;;;;;;4.18;2.47;;;;;;;12.72;81.58;95741.56;5341255;26;20049;-62
2024/05/05 00:22:46;;;;;;;3.65;3.05;;;;;;;12.81;81.54;95735.38;5341696;26;20349;-61
2024/05/05 00:25:11;;;;;;;4.60;3.22;;;;;;;12.69;82.85;95731.50;5338473;26;20019;-62
2024/05/05 00:27:37;;;;;;;4.75;3.08;;;;;;;12.78;82.09;95730.63;5342334;26;20017;-62
2024/05/05 00:30:02;;;;;;;3.83;3.17;;;;;;;12.81;83.25;95729.31;5341210;26;20019;-61
2024/05/05 00:32:27;;;;;;;6.28;2.95;;;;;;;12.83;82.44;95727.16;5342073;26;20023;-62
2024/05/05 00:34:53;;;;;;;3.25;2.50;;;;;;;12.76;82.11;95726.69;5337034;26;20005;-63
2024/05/05 00:37:18;;;;;;;3.15;2.75;;;;;;;12.83;80.91;95727.94;5342139;26;20337;-62
2024/05/05 00:39:43;;;;;;;3.40;2.78;;;;;;;12.80;80.92;95719.78;5342368;26;20041;-61
2024/05/05 00:42:08;;;;;;;4.75;3.35;;;;;;;12.92;81.63;95720.19;5341297;26;20024;-61
2024/05/05 00:44:34;;;;;;;6.22;3.75;;;;;;;12.87;83.25;95717.59;5340801;26;20373;-63
2024/05/05 00:46:59;;;;;;;3.58;3.00;;;;;;;12.49;84.13;95720.00;5338093;26;20013;-61
2024/05/05 00:49:25;;;;;;;2.60;2.38;;;;;;;12.50;82.90;95720.81;5340252;26;20012;-62
2024/05/05 00:51:50;;;;;;;4.05;3.28;;;;;;;12.62;81.25;95723.09;5340500;26;20463;-62
2024/05/05 00:54:19;;;;;;;3.10;2.75;;;;;;;12.16;83.98;95720.78;5341045;26;20488;-61
2024/05/05 00:56:45;;;;;;;3.70;2.90;;;;;;;12.17;86.53;95719.69;5338490;26;20059;-62
2024/05/05 00:59:12;;;;;;;4.78;3.00;;;;;;;12.33;85.17;95716.69;5341908;26;20023;-61
2024/05/05 01:01:37;;;;;;;4.40;2.97;;;;;;;11.94;87.09;95711.38;5341213;26;20013;-62
2024/05/05 01:04:03;;;;;;;4.15;2.60;;;;;;;11.79;88.08;95714.88;5342152;26;20016;-62
2024/05/05 01:06:28;;;;;;;4.55;2.70;;;;;;;11.94;85.64;95710.59;5341224;26;20023;-62
2024/05/05 01:08:54;;;;;;;5.70;2.80;;;;;;;11.99;85.67;95708.72;5341041;26;20013;-63
2024/05/05 01:11:19;;;;;;;4.45;2.88;;;;;;;11.94;85.14;95700.81;5343029;26;20041;-61
2024/05/05 01:13:45;;;;;;;5.10;2.63;;;;;;;12.03;85.30;95708.97;5339518;26;20032;-62
2024/05/05 01:16:10;;;;;;;4.18;2.92;;;;;;;12.05;85.95;95706.81;5341833;26;20017;-60
2024/05/05 01:18:36;;;;;;;3.80;2.92;;;;;;;12.30;84.39;95708.50;5335172;26;20350;-61
2024/05/05 01:21:01;;;;;;;3.38;2.67;;;;;;;12.36;82.70;95699.50;5337256;26;20475;-61
2024/05/05 01:23:27;;;;;;;5.10;3.35;;;;;;;12.38;84.06;95693.91;5340156;26;20001;-61
2024/05/05 01:25:52;;;;;;;5.22;3.50;;;;;;;12.16;86.38;95691.69;5339987;26;20460;-61
2024/05/05 01:28:17;;;;;;;5.30;2.53;;;;;;;11.57;87.00;95695.94;5340772;26;20028;-61
2024/05/05 01:30:43;;;;;;;3.00;2.45;;;;;;;11.55;85.88;95692.78;5340685;26;20016;-61
2024/05/05 01:33:08;;;;;;;2.75;2.47;;;;;;;11.55;88.10;95704.13;5341443;26;20017;-61
2024/05/05 01:35:36;;;;;;;3.20;2.72;;;;;;;11.44;87.79;95696.50;5332018;26;20008;-62
2024/05/05 01:38:01;;;;;;;6.15;3.78;;;;;;;11.54;88.94;95696.47;5340316;26;20074;-61
2024/05/05 01:40:26;;;;;;;5.32;3.00;;;;;;;11.84;87.41;95700.09;5341244;26;20012;-61
2024/05/05 01:42:52;;;;;;;6.40;3.72;;;;;;;11.95;86.23;95694.44;5341439;26;20019;-61
2024/05/05 01:45:17;;;;;;;4.50;3.53;;;;;;;11.99;85.77;95692.84;5334414;26;20020;-62
2024/05/05 01:47:43;;;;;;;10.85;3.85;;;;;;;11.99;84.83;95698.13;5328095;26;20009;-62
2024/05/05 01:50:08;;;;;;;7.70;3.95;;;;;;;12.02;84.79;95700.22;5329702;26;20086;-63
2024/05/05 01:52:33;;;;;;;8.65;3.42;;;;;;;11.89;84.48;95692.91;5336783;26;20005;-62
2024/05/05 01:54:59;;;;;;;3.50;2.97;;;;;;;11.14;87.40;95703.47;5337921;26;20009;-60
2024/05/05 01:57:24;;;;;;;4.93;2.93;;;;;;;11.07;89.60;95696.88;5333789;26;20231;-61
2024/05/05 01:59:49;;;;;;;8.70;3.10;;;;;;;11.10;88.88;95702.41;5340937;26;20259;-63
2024/05/05 02:02:14;;;;;;;4.68;3.55;;;;;;;11.19;87.96;95708.75;5340124;26;20102;-61
2024/05/05 02:04:40;;;;;;;3.92;3.03;;;;;;;11.31;86.63;95708.47;5338951;26;20033;-61
2024/05/05 02:07:05;;;;;;;3.95;2.80;;;;;;;11.34;86.41;95717.69;5325664;26;20391;-60
2024/05/05 02:09:30;;;;;;;4.40;3.37;;;;;;;11.43;85.60;95708.13;5330150;26;20014;-61
2024/05/05 02:11:55;;;;;;;5.60;3.65;;;;;;;11.17;86.72;95707.44;5339316;26;20355;-61
2024/05/05 02:14:21;;;;;;;5.45;3.05;;;;;;;11.38;85.44;95706.31;5335877;26;20135;-61
2024/05/05 02:16:46;;;;;;;4.78;3.25;;;;;;;11.38;84.66;95708.94;5340547;26;20031;-61
2024/05/05 02:19:11;;;;;;;4.95;3.35;;;;;;;11.21;84.82;95716.38;5340574;26;20017;-60
2024/05/05 02:21:37;;;;;;;4.05;3.30;;;;;;;10.81;88.89;95718.03;5340916;26;20019;-62
2024/05/05 02:24:03;;;;;;;5.22;3.47;;;;;;;11.11;87.56;95725.13;5332726;26;20009;-63
2024/05/05 02:26:29;;;;;;;5.20;3.63;;;;;;;11.30;86.06;95727.97;5336407;26;20024;-61
2024/05/05 02:28:55;;;;;;;5.05;3.55;;;;;;;11.34;84.44;95718.47;5327344;26;20004;-61
2024/05/05 02:31:20;;;;;;;9.13;3.72;;;;;;;11.40;85.05;95713.94;5329109;26;20072;-60
2024/05/05 02:33:46;;;;;;;5.30;3.55;;;;;;;11.52;85.13;95715.25;5337404;26;20005;-60
2024/05/05 02:36:11;;;;;;;8.55;4.15;;;;;;;11.39;84.71;95715.03;5340923;26;20013;-61
2024/05/05 02:38:36;;;;;;;5.97;4.10;;;;;;;11.14;86.26;95718.53;5328346;26;20012;-62
2024/05/05 02:41:01;;;;;;;4.55;3.78;;;;;;;11.28;85.77;95714.25;5340764;26;20086;-60
2024/05/05 02:43:27;;;;;;;4.53;3.65;;;;;;;11.29;85.74;95727.19;5341151;26;20463;-61
2024/05/05 02:45:52;;;;;;;5.60;3.63;;;;;;;11.18;85.30;95725.66;5330361;26;20091;-60
2024/05/05 02:48:17;;;;;;;5.47;3.40;;;;;;;11.30;83.54;95727.97;5339669;26;20020;-59
2024/05/05 02:50:43;;;;;;;4.13;3.30;;;;;;;10.89;86.25;95738.63;5330638;26;20086;-61
2024/05/05 02:53:11;;;;;;;6.80;3.60;;;;;;;10.91;86.63;95739.13;5337480;26;20009;-60
2024/05/05 02:55:36;;;;;;;5.30;3.60;;;;;;;10.94;85.92;95751.81;5330562;26;20014;-61
2024/05/05 02:58:01;;;;;;;4.07;2.75;;;;;;;10.66;87.31;95755.00;5336755;26;20084;-60
2024/05/05 03:00:27;;;;;;;4.50;3.38;;;;;;;9.91;89.18;95742.16;5333770;26;20020;-62
2024/05/05 03:02:52;;;;;;;4.68;3.50;;;;;;;9.38;96.46;95746.69;5338188;26;20024;-61
2024/05/05 03:05:17;;;;;;;6.93;3.67;;;;;;;9.46;98.91;95737.53;5339290;26;20480;-61
2024/05/05 03:07:42;;;;;;;6.55;4.20;;;;;;;9.84;97.84;95738.22;5340602;26;20016;-61
2024/05/05 03:10:08;;;;;;;6.18;4.43;;;;;;;9.97;96.53;95722.72;5339173;26;20087;-61
2024/05/05 03:12:33;;;;;;;5.88;4.60;;;;;;;10.14;95.16;95730.38;5335140;26;20041;-63
2024/05/05 03:14:58;;;;;;;5.93;4.10;;;;;;;10.38;93.32;95730.69;5327961;26;20009;-61
2024/05/05 03:17:24;;;;;;;6.03;4.45;;;;;;;10.51;92.32;95734.69;5339756;26;20005;-61
2024/05/05 03:19:49;;;;;;;8.05;5.10;;;;;;;10.52;92.41;95734.41;5339452;26;20023;-61
2024/05/05 03:22:14;;;;;;;7.38;4.97;;;;;;;10.46;93.44;95730.19;5332594;26;20001;-60
2024/05/05 03:24:39;;;;;;;8.33;5.27;;;;;;;10.74;91.79;95726.25;5330128;26;20009;-61
2024/05/05 03:27:06;;;;;;;8.38;5.72;;;;;;;10.85;91.52;95724.38;5339039;26;20251;-61
2024/05/05 03:29:31;;;;;;;7.82;5.18;;;;;;;10.86;90.59;95730.44;5339552;26;20016;-61
2024/05/05 03:31:56;;;;;;;6.50;4.50;;;;;;;10.85;89.99;95724.38;5333669;26;20021;-61
2024/05/05 03:34:22;;;;;;;9.90;4.53;;;;;;;10.57;88.45;95732.81;5333568;26;20021;-61
2024/05/05 03:36:47;;;;;;;5.93;4.50;;;;;;;10.09;92.12;95745.41;5334082;26;20005;-60
2024/05/05 03:39:12;;;;;;;7.63;4.90;;;;;;;10.22;95.65;95737.00;5341629;26;20017;-60
2024/05/05 03:41:38;;;;;;;6.97;4.82;;;;;;;10.40;94.62;95747.06;5329699;26;20082;-62
2024/05/05 03:44:03;;;;;;;9.07;5.50;;;;;;;10.02;98.10;95745.66;5342052;26;20013;-61
2024/05/05 03:46:28;;;;;;;10.43;5.40;;;;;;;9.94;99.91;95754.84;5343374;26;20255;-62
2024/05/05 03:48:54;;;;;;;8.10;5.63;;;;;;;9.58;100.00;95753.13;5342884;26;20448;-61
2024/05/05 03:51:19;;;;;;;11.32;6.10;;;;;;;9.29;100.00;95763.25;5332064;26;20009;-62
2024/05/05 03:53:44;;;;;;;10.43;6.22;;;;;;;10.03;100.00;95755.94;5342307;26;20020;-61
2024/05/05 03:56:10;;;;;;;8.48;6.22;;;;;;;10.49;100.00;95748.13;5340711;26;20016;-61
2024/05/05 03:58:35;;;;;;;10.75;6.70;;;;;;;10.83;95.74;95746.78;5341814;26;20604;-61
2024/05/05 04:01:00;;;;;;;7.18;5.65;;;;;;;11.01;93.26;95747.03;5329583;26;20152;-61
2024/05/05 04:03:26;;;;;;;7.88;5.80;;;;;;;11.15;91.34;95757.84;5333461;26;20021;-60
2024/05/05 04:05:51;;;;;;;9.02;5.63;;;;;;;11.25;91.34;95751.75;5341673;26;20020;-62
2024/05/05 04:08:16;;;;;;;8.98;6.63;;;;;;;11.32;89.31;95752.28;5332296;26;20083;-61
2024/05/05 04:10:41;;;;;;;15.90;6.30;;;;;;;11.47;89.52;95762.03;5342821;26;20016;-60
2024/05/05 04:13:07;;;;;;;10.27;6.03;;;;;;;11.52;88.84;95765.44;5337518;26;20672;-63
2024/05/05 04:15:32;;;;;;;10.27;6.30;;;;;;;11.51;89.70;95771.78;5342368;26;20005;-62
2024/05/05 04:17:57;;;;;;;9.67;5.83;;;;;;;11.46;87.88;95774.44;5336060;26;20009;-61
2024/05/05 04:20:22;;;;;;;11.85;6.95;;;;;;;11.38;89.58;95772.34;5340537;26;20734;-61
2024/05/05 04:22:48;;;;;;;10.63;6.78;;;;;;;11.49;89.17;95768.59;5341189;26;20500;-60
2024/05/05 04:25:13;;;;;;;11.27;6.72;;;;;;;11.07;92.66;95774.25;5341333;26;20008;-62
2024/05/05 04:27:38;;;;;;;12.48;6.95;;;;;;;11.38;90.79;95776.84;5343799;26;20044;-62
2024/05/05 04:30:04;;;;;;;13.50;8.43;;;;;;;11.10;93.44;95775.56;5341873;26;20008;-60
2024/05/05 04:32:29;;;;;;;15.93;9.07;;;;;;;11.29;94.29;95784.50;5343084;26;20024;-60
2024/05/05 04:34:55;;;;;;;16.20;7.68;;;;;;;10.99;94.26;95780.84;5343069;26;20005;-61
2024/05/05 04:37:20;;;;;;;17.00;8.02;;;;;;;11.07;97.01;95776.06;5343123;26;20005;-61
2024/05/05 04:39:45;;;;;;;16.30;9.15;;;;;;;10.99;98.19;95774.78;5342957;26;20471;-61
2024/05/05 04:42:11;;;;;;;16.50;9.20;;;;;;;11.47;96.41;95781.31;5335012;26;20009;-62
2024/05/05 04:44:36;;;;;;;11.70;8.35;;;;;;;11.00;96.16;95782.44;5342180;26;20527;-61
2024/05/05 04:47:01;;;;;;;14.63;9.02;;;;;;;11.07;98.15;95779.53;5340947;26;20023;-61
2024/05/05 04:49:26;;;;;;;13.52;8.48;;;;;;;11.63;94.83;95778.63;5342605;26;20452;-61
2024/05/05 04:51:52;;;;;;;14.32;9.80;;;;;;;11.51;94.25;95776.28;5337384;26;20008;-61
2024/05/05 04:54:17;;;;;;;15.43;9.40;;;;;;;11.24;95.34;95793.22;5342383;26;20312;-62
2024/05/05 04:56:42;;;;;;;12.35;8.05;;;;;;;10.93;98.61;95789.84;5341317;26;20399;-61
2024/05/05 04:59:08;;;;;;;15.52;9.05;;;;;;;10.39;100.00;95787.66;5329824;26;20008;-61
2024/05/05 05:01:33;;;;;;;13.40;9.95;;;;;;;10.21;100.00;95790.78;5341794;26;20016;-61
2024/05/05 05:03:58;;;;;;;14.48;9.15;;;;;;;10.26;100.00;95785.56;5342593;26;20016;-61
2024/05/05 05:06:23;;;;;;;15.23;9.77;;;;;;;10.60;100.00;95782.44;5340129;26;20348;-62
2024/05/05 05:08:49;;;;;;;16.33;10.35;;;;;;;10.70;100.00;95795.63;5340402;26;20107;-60
2024/05/05 05:11:14;;;;;;;15.63;10.02;;;;;;;10.75;100.00;95796.44;5341110;26;20009;-61
2024/05/05 05:13:44;;;;;;;20.10;10.32;;;;;;;10.86;100.00;95802.50;5341312;26;20005;-61
2024/05/05 05:16:10;;;;;;;12.25;8.93;;;;;;;10.96;100.00;95797.22;5342144;26;20021;-62
2024/05/05 05:18:35;;;;;;;13.35;9.70;;;;;;;11.12;100.00;95800.66;5348075;26;20031;-60
2024/05/05 05:21:00;;;;;;;17.08;10.20;;;;;;;11.31;100.00;95795.63;5341159;26;20367;-63
2024/05/05 05:23:26;;;;;;;26.05;10.60;;;;;;;11.24;100.00;95798.50;5340122;26;20036;-61
2024/05/05 05:25:51;;;;;;;15.13;9.75;;;;;;;11.02;100.00;95803.31;5342436;26;20009;-61
2024/05/05 05:28:16;;;;;;;15.02;9.88;;;;;;;11.14;100.00;95800.38;5340170;26;20008;-62
2024/05/05 05:30:42;;;;;;;13.45;10.05;;;;;;;11.41;100.00;95808.81;5342482;26;20356;-61
2024/05/05 05:33:07;;;;;;;14.77;10.40;;;;;;;11.45;100.00;95806.41;5341767;26;20404;-61
2024/05/05 05:35:32;;;;;;;15.73;9.63;;;;;;;11.73;100.00;95807.66;5341731;26;20020;-60
2024/05/05 05:37:57;;;;;;;14.23;9.75;;;;;;;12.24;100.00;95805.63;5340811;26;20713;-61
2024/05/05 05:40:23;;;;;;;13.13;9.65;;;;;;;12.11;99.56;95808.06;5340512;26;20024;-62
2024/05/05 05:42:48;;;;;;;15.18;8.95;;;;;;;11.84;100.00;95808.47;5340613;26;20348;-61
2024/05/05 05:45:13;;;;;;;14.20;8.82;;;;;;;11.83;100.00;95810.28;5340444;26;20717;-62
2024/05/05 05:47:43;;;;;;;19.70;9.27;;;;;;;12.17;100.00;95805.16;5341989;26;20022;-62
2024/05/05 05:50:08;;;;;;;10.90;8.40;;;;;;;12.14;100.00;95810.19;5338711;26;20016;-61
2024/05/05 05:52:33;;;;;;;13.07;7.45;;;;;;;11.89;100.00;95809.22;5340289;26;20353;-60
2024/05/05 05:54:59;;;;;;;9.93;7.13;;;;;;;11.82;100.00;95819.28;5338999;26;20009;-60
2024/05/05 05:57:24;;;;;;;12.30;7.43;;;;;;;11.82;100.00;95822.72;5340784;26;20313;-61
2024/05/05 05:59:49;;;;;;;14.65;7.25;;;;;;;11.54;100.00;95818.78;5338835;26;20021;-62
2024/05/05 06:02:14;;;;;;;11.73;7.78;;;;;;;11.42;100.00;95820.94;5340605;26;20013;-61
2024/05/05 06:04:40;;;;;;;12.77;7.05;;;;;;;11.86;100.00;95816.91;5340481;26;20026;-60
2024/05/05 06:07:05;;;;;;;14.73;8.10;;;;;;;12.13;100.00;95813.91;5340713;26;20360;-63
2024/05/05 06:09:30;;;;;;;10.02;7.18;;;;;;;12.44;100.00;95820.59;5339301;26;20005;-60
2024/05/05 06:11:56;;;;;;;13.20;6.65;;;;;;;12.28;100.00;95811.19;5340498;26;20337;-62
2024/05/05 06:14:21;;;;;;;11.07;6.85;;;;;;;12.32;100.00;95818.28;5341551;26;20029;-61
2024/05/05 06:16:46;;;;;;;13.00;6.63;;;;;;;12.51;97.53;95810.53;5341262;26;20005;-60
2024/05/05 06:19:12;;;;;;;11.02;5.95;;;;;;;12.61;98.40;95814.16;5337336;26;20009;-62
2024/05/05 06:21:37;;;;;;;12.15;7.55;;;;;;;12.37;99.91;95820.13;5338869;26;20005;-61
2024/05/05 06:24:02;;;;;;;13.43;6.95;;;;;;;12.57;100.00;95814.72;5339292;26;20009;-62
2024/05/05 06:26:28;;;;;;;12.57;7.25;;;;;;;12.58;97.78;95811.00;5339033;26;20067;-61
2024/05/05 06:28:53;;;;;;;12.52;6.55;;;;;;;13.10;96.19;95819.38;5338259;26;20005;-61
2024/05/05 06:31:18;;;;;;;10.07;6.18;;;;;;;13.06;97.08;95821.78;5340450;26;20001;-63
2024/05/05 06:33:43;;;;;;;9.80;5.70;;;;;;;13.02;96.27;95822.59;5340973;26;20086;-61
2024/05/05 06:36:12;;;;;;;20.23;5.70;;;;;;;13.25;94.52;95824.56;5341855;26;20018;-61
2024/05/05 06:38:37;;;;;;;6.75;5.03;;;;;;;13.51;91.94;95833.09;5340553;26;20013;-62
2024/05/05 06:41:03;;;;;;;5.90;4.68;;;;;;;13.72;90.55;95828.34;5344988;26;20005;-61
2024/05/05 06:43:28;;;;;;;7.95;4.82;;;;;;;13.67;88.91;95827.63;5336733;26;20019;-61
2024/05/05 06:45:53;;;;;;;5.40;3.72;;;;;;;13.97;87.56;95829.94;5340954;26;20024;-61
2024/05/05 06:48:19;;;;;;;4.00;3.13;;;;;;;14.55;82.01;95829.75;5337957;26;20065;-62
2024/05/05 06:50:44;;;;;;;4.78;3.15;;;;;;;14.47;82.53;95837.53;5338057;26;20020;-61
2024/05/05 06:53:09;;;;;;;3.95;3.28;;;;;;;14.63;80.79;95831.00;5339678;26;20132;-61
2024/05/05 06:55:35;;;;;;;5.43;3.30;;;;;;;14.86;79.64;95834.66;5340399;26;20009;-61
2024/05/05 06:58:00;;;;;;;4.90;2.55;;;;;;;15.30;76.81;95830.78;5337946;26;20283;-61
2024/05/05 07:00:25;;;;;;;4.10;2.67;;;;;;;15.31;75.71;95829.69;5339158;26;20092;-62
2024/05/05 07:02:50;;;;;;;3.47;2.35;;;;;;;15.10;76.28;95829.25;5337709;26;20415;-62
2024/05/05 07:05:16;;;;;;;3.95;2.00;;;;;;;15.04;74.99;95838.34;5330469;26;20010;-61
2024/05/05 07:07:41;;;;;;;4.80;2.80;;;;;;;15.08;76.27;95832.16;5337672;26;20009;-61
2024/05/05 07:10:07;;;;;;;4.18;2.40;;;;;;;15.07;75.58;95835.13;5336610;26;20980;-61
2024/05/05 07:12:32;;;;;;;5.18;2.58;;;;;;;15.55;73.93;95830.34;5342860;26;20005;-62
2024/05/05 07:14:57;;;;;;;2.08;1.70;;;;;;;15.71;74.00;95835.41;5340056;26;20009;-61
2024/05/05 07:17:22;;;;;;;3.17;2.20;;;;;;;16.14;70.01;95828.75;5336516;26;20001;-61
2024/05/05 07:19:48;;;;;;;2.20;1.83;;;;;;;16.05;70.18;95827.03;5342973;26;20243;-62
2024/05/05 07:22:13;;;;;;;2.28;1.90;;;;;;;15.99;72.74;95836.22;5339772;26;20005;-61
2024/05/05 07:24:39;;;;;;;3.38;2.05;;;;;;;16.44;70.72;95829.19;5341149;26;20013;-62
2024/05/05 07:27:04;;;;;;;4.13;2.43;;;;;;;16.57;69.41;95828.38;5338545;26;20467;-62
2024/05/05 07:29:30;;;;;;;2.28;1.92;;;;;;;16.71;69.34;95839.00;5339338;26;20343;-61
2024/05/05 07:31:55;;;;;;;4.10;1.73;;;;;;;16.82;67.19;95828.94;5339154;26;20015;-61
2024/05/05 07:34:21;;;;;;;1.58;1.48;;;;;;;16.72;66.83;95831.81;5341212;26;20041;-61
2024/05/05 07:36:46;;;;;;;2.20;1.63;;;;;;;16.55;69.08;95837.75;5343271;26;20017;-61
2024/05/05 07:39:22;;;;;;;2.30;1.70;;;;;;;16.45;68.50;95832.66;5343788;26;20024;-61
2024/05/05 07:41:48;;;;;;;5.00;2.17;;;;;;;16.07;71.51;95846.19;5334782;26;20017;-61
2024/05/05 07:44:21;;;;;;;2.00;1.77;;;;;;;16.29;70.40;95840.97;5342893;26;20020;-61
2024/05/05 07:46:47;;;;;;;3.63;1.27;;;;;;;16.29;70.76;95848.13;5337465;26;20427;-63
2024/05/05 07:49:12;;;;;;;3.35;1.58;;;;;;;16.27;70.30;95850.31;5343950;26;20013;-62
2024/05/05 07:51:37;;;;;;;2.10;1.58;;;;;;;16.47;71.21;95844.56;5342825;26;20005;-61
2024/05/05 07:54:02;;;;;;;4.00;1.98;;;;;;;16.67;68.98;95849.47;5338887;26;20012;-62
2024/05/05 07:56:28;;;;;;;5.50;1.30;;;;;;;16.65;69.08;95851.63;5343250;26;20719;-62
2024/05/05 07:58:53;;;;;;;1.58;1.10;;;;;;;16.30;68.72;95857.72;5340267;26;20009;-63
2024/05/05 08:01:18;;;;;;;1.80;1.27;;;;;;;16.13;72.85;95850.31;5338381;26;20009;-62
2024/05/05 08:03:44;;;;;;;1.58;1.27;;;;;;;16.07;73.11;95857.63;5340111;26;20456;-61
2024/05/05 08:06:09;;;;;;;1.88;1.20;;;;;;;16.14;70.81;95858.03;5336739;26;20012;-62
2024/05/05 08:08:34;;;;;;;1.65;1.33;;;;;;;16.29;69.92;95856.13;5337274;26;20082;-61
2024/05/05 08:11:00;;;;;;;0.80;0.63;;;;;;;16.46;68.37;95856.31;5343248;26;20005;-61
2024/05/05 08:13:25;;;;;;;2.72;0.68;;;;;;;16.56;67.65;95858.75;5342058;26;20012;-61
2024/05/05 08:15:51;;;;;;;0.50;0.50;;;;;;;16.49;68.90;95860.25;5338635;26;20414;-62
2024/05/05 08:18:16;;;;;;;1.17;0.85;;;;;;;16.57;67.93;95854.22;5331612;26;20010;-61
2024/05/05 08:20:41;;;;;;;1.33;0.90;;;;;;;16.67;68.70;95854.81;5339313;26;20004;-62
2024/05/05 08:23:07;;;;;;;1.63;0.90;;;;;;;17.13;67.04;95850.34;5340686;26;20082;-61
2024/05/05 08:25:32;;;;;;;1.23;0.80;;;;;;;17.07;65.73;95847.00;5337032;26;20531;-60
2024/05/05 08:27:57;;;;;;;0.45;0.40;;;;;;;16.72;67.14;95850.47;5341914;26;20012;-60
2024/05/05 08:30:23;;;;;;;1.30;0.68;;;;;;;16.78;66.30;95843.94;5336075;26;20404;-62
2024/05/05 08:32:48;;;;;;;2.03;0.70;;;;;;;16.92;66.79;95840.16;5337721;26;20040;-62
2024/05/05 08:35:14;;;;;;;0.63;0.63;;;;;;;17.40;66.20;95844.88;5337572;26;20016;-60
2024/05/05 08:37:39;;;;;;;1.73;0.98;;;;;;;17.40;66.34;95846.75;5342404;26;20004;-61
2024/05/05 08:40:09;;;;;;;0.45;0.43;;;;;;;17.43;64.51;95848.81;5337743;26;20348;-61
2024/05/05 08:42:39;;;;;;;1.33;0.50;;;;;;;16.90;66.59;95839.66;5334359;26;20029;-61
2024/05/05 08:45:04;;;;;;;1.92;0.80;;;;;;;16.88;64.29;95841.06;5336735;26;20016;-62
2024/05/05 08:47:31;;;;;;;2.10;0.45;;;;;;;17.05;64.53;95843.84;5336832;26;20004;-60
2024/05/05 08:49:58;;;;;;;0.45;0.45;;;;;;;17.29;62.45;95842.75;5340287;26;20468;-61
2024/05/05 08:52:26;;;;;;;1.17;0.60;;;;;;;17.26;63.61;95844.16;5331335;26;20009;-60
2024/05/05 08:54:51;;;;;;;1.13;0.40;;;;;;;17.25;63.59;95847.94;5341828;26;20004;-62
2024/05/05 08:57:16;;;;;;;0.73;0.50;;;;;;;17.53;63.73;95837.09;5340000;26;20023;-60
2024/05/05 08:59:42;;;;;;;0.65;0.45;;;;;;;17.67;63.74;95843.13;5341603;26;20005;-60
2024/05/05 09:02:10;;;;;;;1.02;0.38;;;;;;;17.92;62.19;95831.06;5337037;26;20020;-61
2024/05/05 09:04:36;;;;;;;0.73;0.60;;;;;;;18.26;60.42;95832.25;5338855;26;20022;-61
2024/05/05 09:07:02;;;;;;;0.80;0.57;;;;;;;18.71;58.93;95843.53;5335989;26;20013;-60
2024/05/05 09:09:28;;;;;;;1.00;0.70;;;;;;;18.73;58.86;95835.19;5339258;26;20436;-61
2024/05/05 09:11:53;;;;;;;3.42;0.55;;;;;;;18.85;59.38;95833.47;5338707;26;20012;-63
2024/05/05 09:14:25;;;;;;;0.30;0.30;;;;;;;18.95;57.86;95837.72;5341202;26;20091;-60
2024/05/05 09:16:53;;;;;;;1.85;0.30;;;;;;;18.96;56.83;95834.72;5329589;26;20025;-59
2024/05/05 09:19:19;;;;;;;1.58;0.50;;;;;;;19.02;55.51;95838.03;5341514;26;20019;-60
2024/05/05 09:21:44;;;;;;;0.88;0.30;;;;;;;18.70;57.63;95828.59;5333671;26;20020;-60
2024/05/05 09:24:10;;;;;;;0.73;0.40;;;;;;;18.73;57.22;95819.16;5334464;26;20027;-61
2024/05/05 09:26:36;;;;;;;2.53;0.57;;;;;;;18.94;56.61;95825.47;5340882;26;20020;-62
2024/05/05 09:29:03;;;;;;;0.30;0.30;;;;;;;18.66;56.86;95817.72;5334799;26;20025;-60
2024/05/05 09:31:29;;;;;;;2.33;0.38;;;;;;;18.66;56.91;95819.59;5341452;26;20005;-60
2024/05/05 09:33:55;;;;;;;1.42;0.47;;;;;;;19.20;54.49;95822.75;5340755;26;20069;-61
2024/05/05 09:36:21;;;;;;;0.50;0.38;;;;;;;19.44;55.17;95820.34;5334223;26;22545;-61
2024/05/05 09:38:48;;;;;;;0.22;0.22;;;;;;;19.56;54.34;95814.34;5340368;26;20008;-63
2024/05/05 09:41:14;;;;;;;0.73;0.30;;;;;;;19.94;55.35;95813.63;5341198;26;20641;-63
2024/05/05 09:43:40;;;;;;;0.30;0.30;;;;;;;19.41;56.19;95806.84;5339996;26;20013;-60
2024/05/05 09:46:07;;;;;;;0.25;0.25;;;;;;;19.32;54.63;95806.84;5338180;26;20015;-61
2024/05/05 09:48:34;;;;;;;0.65;0.40;;;;;;;19.27;55.78;95816.94;5335143;26;20037;-60
2024/05/05 09:51:04;;;;;;;0.52;0.40;;;;;;;19.53;55.00;95804.28;5341161;26;20023;-59
2024/05/05 09:53:38;;;;;;;0.63;0.30;;;;;;;19.93;55.27;95809.34;5336721;26;20005;-60
2024/05/05 09:56:12;;;;;;;0.20;0.20;;;;;;;18.99;54.24;95816.50;5339424;26;20005;-59
2024/05/05 09:58:52;;;;;;;0.20;0.20;;;;;;;18.92;54.96;95808.94;5337983;26;20004;-60
2024/05/05 10:01:18;;;;;;;0.73;0.30;;;;;;;19.09;55.35;95808.94;5332601;26;20001;-60
2024/05/05 10:03:44;;;;;;;0.43;0.28;;;;;;;19.06;53.48;95806.09;5340459;26;20055;-60
2024/05/05 10:06:09;;;;;;;0.68;0.32;;;;;;;19.34;54.31;95807.31;5341253;26;20075;-61
2024/05/05 10:08:40;;;;;;;0.57;0.20;;;;;;;19.19;53.96;95811.28;5339206;26;20567;-61
2024/05/05 10:11:06;;;;;;;0.20;0.20;;;;;;;19.18;53.92;95828.44;5329868;26;20013;-60
2024/05/05 10:13:31;;;;;;;0.22;0.13;;;;;;;18.90;54.90;95819.16;5332981;26;20083;-63
2024/05/05 10:15:56;;;;;;;0.17;0.17;;;;;;;19.38;53.91;95821.63;5339941;26;20036;-60
2024/05/05 10:18:22;;;;;;;1.30;0.10;;;;;;;18.87;54.04;95822.44;5334933;26;20013;-61
2024/05/05 10:20:49;;;;;;;0.50;0.40;;;;;;;18.64;53.95;95822.59;5333828;26;20283;-61
2024/05/05 10:23:19;;;;;;;0.05;0.05;;;;;;;18.49;53.98;95838.25;5339690;26;20043;-60
2024/05/05 10:25:49;;;;;;;0.45;0.38;;;;;;;18.58;55.86;95839.06;5339655;26;20048;-61
2024/05/05 10:28:15;;;;;;;1.08;0.32;;;;;;;18.86;54.52;95820.88;5335646;26;20022;-61
2024/05/05 10:30:40;;;;;;;0.65;0.30;;;;;;;18.71;54.52;95827.50;5340555;26;20012;-62
2024/05/05 10:33:06;;;;;;;0.55;0.20;;;;;;;18.54;56.10;95817.56;5333169;26;20013;-61
2024/05/05 10:35:31;;;;;;;1.98;0.47;;;;;;;18.81;56.53;95821.03;5332473;26;20856;-60
2024/05/05 10:37:56;;;;;;;0.57;0.28;;;;;;;18.84;56.31;95820.44;5339532;26;20039;-61
2024/05/05 10:40:22;;;;;;;0.30;0.30;;;;;;;18.92;55.94;95817.75;5337062;26;20020;-62
2024/05/05 10:42:48;;;;;;;0.17;0.17;;;;;;;18.61;55.80;95799.16;5339308;26;20005;-61
2024/05/05 10:45:17;;;;;;;0.50;0.20;;;;;;;18.50;57.09;95803.25;5340255;26;20013;-61
2024/05/05 10:47:42;;;;;;;0.15;0.15;;;;;;;18.90;57.63;95803.13;5340388;26;20001;-62
2024/05/05 10:50:08;;;;;;;0.90;0.60;;;;;;;19.13;56.22;95814.44;5340184;26;20012;-60
2024/05/05 10:52:35;;;;;;;0.17;0.10;;;;;;;19.63;55.92;95809.31;5335280;26;20021;-62
2024/05/05 10:55:01;;;;;;;0.32;0.30;;;;;;;20.02;55.29;95804.75;5339009;26;20074;-61
2024/05/05 10:57:27;;;;;;;0.65;0.32;;;;;;;19.26;54.42;95799.28;5325843;26;20025;-62
2024/05/05 10:59:53;;;;;;;0.52;0.30;;;;;;;18.85;56.18;95808.63;5336194;26;20009;-63
2024/05/05 11:02:29;;;;;;;0.28;0.10;;;;;;;18.52;56.54;95803.69;5338775;26;20020;-62
2024/05/05 11:05:02;;;;;;;4.85;0.32;;;;;;;18.25;56.72;95831.44;5336914;26;20009;-61
2024/05/05 11:07:34;;;;;;;0.88;0.20;;;;;;;18.02;57.59;95820.09;5334300;26;20005;-60
2024/05/05 11:10:05;;;;;;;2.08;0.65;;;;;;;17.82;59.56;95824.09;5335072;26;20020;-61
2024/05/05 11:12:47;;;;;;;0.10;0.10;;;;;;;17.72;60.20;95820.88;5333393;26;20052;-63
2024/05/05 11:15:29;;;;;;;0.00;0.00;;;;;;;17.73;60.39;95828.63;5331183;26;20013;-61
2024/05/05 11:18:00;;;;;;;0.10;0.10;;;;;;;18.01;60.79;95815.81;5339504;26;20081;-61
2024/05/05 11:20:25;;;;;;;0.20;0.13;;;;;;;18.17;58.74;95830.34;5327917;26;20005;-62
2024/05/05 11:22:51;;;;;;;0.38;0.10;;;;;;;18.10;59.23;95823.88;5338631;26;20095;-63
2024/05/05 11:25:16;;;;;;;0.10;0.10;;;;;;;18.24;58.78;95813.06;5332785;26;20010;-61